Time;durP1;ratioP1;P1;durP2;ratioP2;P2;SDS_P1;SDS_P2;PMS_P1;PMS_P2;Temp;Humidity;BMP_temperature;BMP_pressure;BME280_temperature;BME280_humidity;BME280_pressure;Samples;Min_cycle;Max_cycle;Signal;HPM_P1;HPM_P2
2023/11/05 00:02:21;;;;;;;0.40;0.40;;;;;;;8.53;100.00;94820.16;5036239;28;20575;-79
2023/11/05 00:04:48;;;;;;;0.33;0.33;;;;;;;8.52;100.00;94810.63;5035411;28;20221;-80
2023/11/05 00:07:14;;;;;;;0.40;0.40;;;;;;;8.50;100.00;94825.78;5035083;28;20216;-79
2023/11/05 00:09:41;;;;;;;0.60;0.40;;;;;;;8.51;100.00;94816.91;5035899;28;20229;-79
2023/11/05 00:12:07;;;;;;;1.13;0.40;;;;;;;8.50;100.00;94817.91;5035414;28;20241;-79
2023/11/05 00:14:34;;;;;;;0.40;0.40;;;;;;;8.49;100.00;94810.97;5035376;28;20718;-80
2023/11/05 00:17:03;;;;;;;3.27;0.60;;;;;;;8.42;100.00;94813.50;5036001;28;20211;-79
2023/11/05 00:19:29;;;;;;;0.57;0.40;;;;;;;8.44;100.00;94810.69;5036512;28;20605;-79
2023/11/05 00:21:56;;;;;;;0.77;0.67;;;;;;;8.45;100.00;94793.91;5035732;28;20243;-79
2023/11/05 00:24:22;;;;;;;0.33;0.33;;;;;;;8.45;100.00;94788.66;5035615;28;20216;-79
2023/11/05 00:26:49;;;;;;;0.93;0.40;;;;;;;8.39;100.00;94789.34;5035090;28;20226;-79
2023/11/05 00:29:15;;;;;;;0.60;0.53;;;;;;;8.30;100.00;94793.81;5035255;28;20603;-79
2023/11/05 00:31:42;;;;;;;1.57;0.50;;;;;;;8.27;100.00;94775.75;5035349;28;20234;-79
2023/11/05 00:34:09;;;;;;;1.13;0.30;;;;;;;8.32;100.00;94772.63;5035157;28;20218;-79
2023/11/05 00:36:36;;;;;;;0.47;0.47;;;;;;;8.27;100.00;94769.69;5034820;28;20221;-79
2023/11/05 00:39:03;;;;;;;0.40;0.40;;;;;;;8.31;100.00;94757.81;5035551;28;20586;-79
2023/11/05 00:41:29;;;;;;;0.23;0.23;;;;;;;8.26;100.00;94768.06;5034589;28;20236;-79
2023/11/05 00:43:56;;;;;;;0.57;0.40;;;;;;;8.24;100.00;94770.84;5034662;28;20214;-79
2023/11/05 00:46:22;;;;;;;0.67;0.40;;;;;;;8.16;100.00;94772.66;5035238;28;20203;-79
2023/11/05 00:48:49;;;;;;;1.33;0.40;;;;;;;8.07;100.00;94771.06;5034837;28;20675;-79
2023/11/05 00:51:17;;;;;;;0.63;0.50;;;;;;;8.03;100.00;94756.63;5034390;28;20263;-79
2023/11/05 00:53:43;;;;;;;0.30;0.30;;;;;;;8.08;100.00;94739.34;5034364;28;20256;-79
2023/11/05 00:56:11;;;;;;;0.57;0.50;;;;;;;8.05;100.00;94742.31;5034351;28;20230;-79
2023/11/05 00:58:37;;;;;;;0.50;0.50;;;;;;;8.01;100.00;94732.31;5040284;28;20220;-79
2023/11/05 01:01:04;;;;;;;0.40;0.40;;;;;;;7.95;100.00;94727.75;5039089;28;20737;-79
2023/11/05 01:03:31;;;;;;;1.43;0.40;;;;;;;8.00;100.00;94725.41;5039003;28;20651;-79
2023/11/05 01:05:57;;;;;;;0.27;0.27;;;;;;;7.89;100.00;94717.94;5038671;28;20212;-80
2023/11/05 01:08:25;;;;;;;1.77;0.50;;;;;;;7.82;100.00;94728.31;5039538;28;20210;-79
2023/11/05 01:10:53;;;;;;;0.30;0.30;;;;;;;7.83;100.00;94729.13;5038828;28;20216;-79
2023/11/05 01:13:19;;;;;;;0.53;0.40;;;;;;;7.80;100.00;94724.22;5038746;28;20211;-79
2023/11/05 01:15:45;;;;;;;0.43;0.43;;;;;;;7.89;100.00;94718.75;5038742;28;20238;-79
2023/11/05 01:18:12;;;;;;;1.33;0.50;;;;;;;7.83;100.00;94721.25;5039128;28;20673;-80
2023/11/05 01:20:38;;;;;;;0.30;0.30;;;;;;;7.76;100.00;94713.22;5039277;28;20207;-79
2023/11/05 01:23:05;;;;;;;0.40;0.37;;;;;;;7.79;100.00;94709.44;5038571;28;20226;-79
2023/11/05 01:25:33;;;;;;;0.60;0.40;;;;;;;7.87;100.00;94701.50;5038615;28;20665;-80
2023/11/05 01:27:59;;;;;;;0.30;0.30;;;;;;;7.91;100.00;94697.53;5039093;28;20217;-80
2023/11/05 01:30:26;;;;;;;0.40;0.40;;;;;;;7.99;100.00;94686.97;5039405;28;20210;-80
2023/11/05 01:32:52;;;;;;;0.37;0.37;;;;;;;8.06;100.00;94677.38;5038931;28;20233;-80
2023/11/05 01:35:19;;;;;;;0.50;0.50;;;;;;;8.11;100.00;94681.16;5039096;28;20598;-80
2023/11/05 01:37:45;;;;;;;0.40;0.40;;;;;;;8.26;100.00;94673.34;5038860;28;20212;-80
2023/11/05 01:40:12;;;;;;;0.90;0.37;;;;;;;8.40;100.00;94681.28;5037978;28;20207;-79
2023/11/05 01:42:40;;;;;;;0.40;0.40;;;;;;;8.57;100.00;94668.84;5034678;28;20340;-79
2023/11/05 01:45:08;;;;;;;0.30;0.30;;;;;;;8.61;100.00;94664.84;5033789;28;20205;-79
2023/11/05 01:47:35;;;;;;;0.83;0.50;;;;;;;8.76;100.00;94655.16;5033910;28;20256;-79
2023/11/05 01:50:03;;;;;;;0.80;0.30;;;;;;;8.80;100.00;94635.38;5035198;28;20220;-79
2023/11/05 01:52:30;;;;;;;0.30;0.30;;;;;;;8.81;100.00;94626.50;5035795;28;20241;-79
2023/11/05 01:54:57;;;;;;;0.40;0.30;;;;;;;8.91;100.00;94619.13;5036610;28;20237;-79
2023/11/05 01:57:23;;;;;;;0.37;0.37;;;;;;;8.87;100.00;94612.63;5037901;28;20210;-79
2023/11/05 01:59:51;;;;;;;0.47;0.40;;;;;;;8.95;100.00;94618.63;5037893;28;20241;-79
2023/11/05 02:02:18;;;;;;;0.50;0.50;;;;;;;8.86;100.00;94606.50;5042781;28;20234;-79
2023/11/05 02:04:45;;;;;;;0.40;0.40;;;;;;;8.90;100.00;94606.97;5044384;28;20206;-79
2023/11/05 02:07:12;;;;;;;1.90;0.40;;;;;;;8.90;100.00;94610.44;5045082;28;20214;-79
2023/11/05 02:09:39;;;;;;;0.53;0.37;;;;;;;9.00;100.00;94597.78;5044592;28;20225;-79
2023/11/05 02:12:06;;;;;;;0.33;0.30;;;;;;;9.05;100.00;94586.75;5045139;28;20226;-79
2023/11/05 02:14:32;;;;;;;0.70;0.40;;;;;;;9.09;100.00;94588.81;5044702;28;20269;-79
2023/11/05 02:17:00;;;;;;;0.50;0.43;;;;;;;9.19;100.00;94578.00;5045252;28;20291;-79
2023/11/05 02:19:27;;;;;;;1.23;0.37;;;;;;;9.25;100.00;94572.78;5045400;28;20211;-79
2023/11/05 02:21:59;;;;;;;0.40;0.30;;;;;;;9.34;100.00;94566.44;5044892;28;20232;-79
2023/11/05 02:24:27;;;;;;;0.53;0.40;;;;;;;9.26;100.00;94565.72;5044661;28;20592;-79
2023/11/05 02:26:57;;;;;;;1.07;0.47;;;;;;;9.19;100.00;94549.81;5045421;28;20214;-79
2023/11/05 02:29:24;;;;;;;0.60;0.30;;;;;;;9.11;100.00;94557.03;5045889;28;20588;-79
2023/11/05 02:31:50;;;;;;;0.97;0.40;;;;;;;9.08;100.00;94547.69;5045565;28;20238;-79
2023/11/05 02:34:17;;;;;;;1.80;0.50;;;;;;;9.15;100.00;94551.22;5045276;28;20218;-79
2023/11/05 02:36:44;;;;;;;1.13;0.40;;;;;;;9.11;100.00;94546.50;5043224;28;20231;-79
2023/11/05 02:39:11;;;;;;;0.20;0.20;;;;;;;9.15;100.00;94535.41;5042279;28;20211;-79
2023/11/05 02:41:39;;;;;;;2.37;0.40;;;;;;;9.19;100.00;94525.31;5042625;28;20314;-79
2023/11/05 02:44:06;;;;;;;1.40;0.50;;;;;;;9.26;100.00;94526.19;5042019;28;20301;-79
2023/11/05 02:46:33;;;;;;;1.10;0.60;;;;;;;9.33;100.00;94527.09;5042062;28;20215;-79
2023/11/05 02:48:59;;;;;;;0.30;0.30;;;;;;;9.34;100.00;94518.19;5041728;28;20217;-79
2023/11/05 02:51:26;;;;;;;0.60;0.40;;;;;;;9.48;99.27;94504.16;5042737;28;20237;-79
2023/11/05 02:53:52;;;;;;;0.50;0.43;;;;;;;9.47;98.96;94497.25;5041645;28;20206;-79
2023/11/05 02:56:18;;;;;;;1.07;0.40;;;;;;;9.44;98.73;94508.16;5041841;28;20229;-79
2023/11/05 02:58:46;;;;;;;1.60;0.50;;;;;;;9.36;99.76;94501.19;5042839;28;20220;-79
2023/11/05 03:01:22;;;;;;;1.33;0.33;;;;;;;9.33;98.92;94498.09;5042491;28;20254;-79
2023/11/05 03:03:48;;;;;;;1.63;0.60;;;;;;;9.36;98.58;94495.13;5041609;28;20239;-79
2023/11/05 03:06:15;;;;;;;2.17;0.57;;;;;;;9.35;97.99;94488.19;5042725;28;20210;-79
2023/11/05 03:08:41;;;;;;;1.43;0.60;;;;;;;9.40;97.11;94477.91;5042414;28;20211;-79
2023/11/05 03:11:08;;;;;;;1.57;0.87;;;;;;;9.45;95.99;94470.28;5042240;28;20239;-79
2023/11/05 03:13:34;;;;;;;0.83;0.50;;;;;;;9.36;96.23;94468.78;5039887;28;20215;-79
2023/11/05 03:16:02;;;;;;;2.20;0.90;;;;;;;9.47;95.10;94455.91;5038918;28;20243;-79
2023/11/05 03:18:28;;;;;;;1.13;0.40;;;;;;;9.48;95.41;94467.28;5038403;28;20215;-79
2023/11/05 03:20:55;;;;;;;1.10;0.43;;;;;;;9.55;94.25;94454.97;5037942;28;20231;-79
2023/11/05 03:23:21;;;;;;;2.23;1.00;;;;;;;9.56;93.81;94451.31;5038697;28;20205;-79
2023/11/05 03:25:48;;;;;;;1.20;0.40;;;;;;;9.55;93.44;94447.06;5038404;28;20224;-79
2023/11/05 03:28:14;;;;;;;0.50;0.50;;;;;;;9.59;93.09;94461.47;5038388;28;20211;-79
2023/11/05 03:30:41;;;;;;;0.77;0.43;;;;;;;9.65;91.39;94453.63;5038308;28;20224;-79
2023/11/05 03:33:08;;;;;;;2.13;0.50;;;;;;;9.62;91.32;94443.47;5038250;28;20575;-79
2023/11/05 03:35:35;;;;;;;1.30;0.67;;;;;;;9.54;92.01;94445.44;5038262;28;20239;-79
2023/11/05 03:38:01;;;;;;;1.20;0.63;;;;;;;9.49;92.25;94448.63;5037934;28;20208;-79
2023/11/05 03:40:28;;;;;;;1.03;0.40;;;;;;;9.46;92.55;94450.81;5038593;28;20212;-79
2023/11/05 03:42:54;;;;;;;1.70;0.30;;;;;;;9.37;92.15;94439.56;5038900;28;20247;-79
2023/11/05 03:45:21;;;;;;;2.60;0.80;;;;;;;9.29;93.20;94438.88;5038535;28;20218;-79
2023/11/05 03:47:47;;;;;;;0.70;0.50;;;;;;;9.30;93.27;94443.16;5038568;28;20208;-79
2023/11/05 03:50:15;;;;;;;4.47;0.57;;;;;;;9.22;93.45;94441.47;5037587;28;20220;-79
2023/11/05 03:52:42;;;;;;;1.27;0.40;;;;;;;9.22;94.17;94443.28;5036532;28;20236;-79
2023/11/05 03:55:09;;;;;;;2.77;0.50;;;;;;;9.10;94.63;94445.59;5037600;28;20218;-79
2023/11/05 03:57:35;;;;;;;0.90;0.60;;;;;;;9.12;94.39;94453.31;5038196;28;20589;-79
2023/11/05 04:00:02;;;;;;;0.40;0.40;;;;;;;9.24;93.61;94460.53;5037783;28;20219;-79
2023/11/05 04:02:28;;;;;;;1.17;0.50;;;;;;;9.34;92.71;94444.41;5037296;28;20745;-79
2023/11/05 04:04:55;;;;;;;2.10;0.50;;;;;;;9.32;92.80;94449.06;5036353;28;20604;-79
2023/11/05 04:07:23;;;;;;;0.90;0.60;;;;;;;9.44;91.98;94439.66;5036667;28;20215;-79
2023/11/05 04:09:49;;;;;;;1.67;0.60;;;;;;;9.57;90.42;94418.69;5036814;28;20209;-78
2023/11/05 04:12:15;;;;;;;2.47;0.57;;;;;;;9.53;90.46;94434.06;5035977;28;20707;-79
2023/11/05 04:14:42;;;;;;;0.80;0.67;;;;;;;9.42;91.27;94441.66;5035941;28;20219;-79
2023/11/05 04:17:08;;;;;;;1.50;0.60;;;;;;;9.36;92.30;94447.69;5036088;28;20239;-79
2023/11/05 04:19:35;;;;;;;3.17;0.50;;;;;;;9.36;92.09;94447.69;5035405;28;20253;-79
2023/11/05 04:22:01;;;;;;;2.67;0.70;;;;;;;9.43;90.84;94448.56;5034920;28;20710;-79
2023/11/05 04:24:29;;;;;;;1.87;0.50;;;;;;;9.42;90.77;94465.38;5034600;28;20208;-79
2023/11/05 04:26:56;;;;;;;3.00;0.60;;;;;;;9.58;90.55;94454.56;5035221;28;20208;-79
2023/11/05 04:29:22;;;;;;;1.80;0.60;;;;;;;9.70;89.32;94439.88;5035744;28;20693;-79
2023/11/05 04:31:49;;;;;;;0.93;0.50;;;;;;;9.77;88.93;94446.03;5034940;28;20236;-79
2023/11/05 04:34:15;;;;;;;2.33;0.53;;;;;;;9.71;89.35;94441.50;5035419;28;20232;-79
2023/11/05 04:36:42;;;;;;;0.73;0.50;;;;;;;9.72;89.55;94445.81;5035176;28;20228;-79
2023/11/05 04:39:08;;;;;;;1.47;0.50;;;;;;;9.79;89.05;94450.09;5035190;28;20212;-79
2023/11/05 04:41:36;;;;;;;0.80;0.47;;;;;;;9.85;88.91;94448.56;5035091;28;20227;-79
2023/11/05 04:44:03;;;;;;;1.23;0.40;;;;;;;9.93;88.83;94451.03;5034844;28;20221;-79
2023/11/05 04:46:29;;;;;;;1.90;0.50;;;;;;;10.09;87.24;94429.69;5035268;28;20211;-79
2023/11/05 04:48:56;;;;;;;1.87;0.50;;;;;;;10.16;86.84;94426.06;5034774;28;20216;-79
2023/11/05 04:51:24;;;;;;;1.60;0.70;;;;;;;10.13;87.63;94429.09;5034564;28;20227;-79
2023/11/05 04:53:51;;;;;;;0.63;0.50;;;;;;;10.16;87.33;94435.81;5034813;28;20212;-79
2023/11/05 04:56:17;;;;;;;1.03;0.60;;;;;;;10.23;87.30;94441.97;5034381;28;20725;-79
2023/11/05 04:58:45;;;;;;;0.77;0.50;;;;;;;10.25;86.11;94424.09;5034527;28;20220;-79
2023/11/05 05:01:11;;;;;;;1.47;0.40;;;;;;;10.24;86.85;94430.38;5034679;28;20245;-79
2023/11/05 05:03:38;;;;;;;1.67;0.70;;;;;;;10.19;87.64;94435.44;5034588;28;20581;-79
2023/11/05 05:06:05;;;;;;;1.27;0.93;;;;;;;10.15;87.61;94442.13;5034470;28;20206;-79
2023/11/05 05:08:32;;;;;;;1.33;0.50;;;;;;;10.12;87.79;94440.69;5035006;28;20218;-79
2023/11/05 05:10:58;;;;;;;1.37;0.50;;;;;;;10.14;87.35;94443.09;5034422;28;20227;-79
2023/11/05 05:13:25;;;;;;;1.70;0.43;;;;;;;10.12;86.99;94455.66;5034650;28;20210;-79
2023/11/05 05:15:52;;;;;;;2.20;0.60;;;;;;;10.09;87.58;94456.06;5034103;28;20214;-79
2023/11/05 05:18:19;;;;;;;1.07;0.37;;;;;;;10.02;88.65;94460.44;5034050;28;20214;-79
2023/11/05 05:20:45;;;;;;;1.30;0.50;;;;;;;9.88;89.58;94469.25;5033856;28;20698;-79
2023/11/05 05:23:12;;;;;;;1.83;0.50;;;;;;;9.80;90.15;94466.75;5034148;28;20238;-79
2023/11/05 05:25:38;;;;;;;1.30;0.70;;;;;;;9.68;91.63;94471.69;5034511;28;20213;-79
2023/11/05 05:28:05;;;;;;;0.47;0.40;;;;;;;9.59;92.47;94482.56;5036303;28;20725;-79
2023/11/05 05:30:31;;;;;;;1.80;0.40;;;;;;;9.63;93.30;94481.19;5036589;28;20217;-79
2023/11/05 05:32:59;;;;;;;1.90;0.57;;;;;;;9.70;92.48;94468.88;5035944;28;20221;-79
2023/11/05 05:35:26;;;;;;;0.60;0.50;;;;;;;9.68;93.01;94473.53;5036730;28;20218;-79
2023/11/05 05:37:52;;;;;;;0.90;0.50;;;;;;;9.61;93.82;94483.22;5037055;28;20233;-79
2023/11/05 05:40:19;;;;;;;1.03;0.50;;;;;;;9.61;94.31;94480.56;5037224;28;20209;-79
2023/11/05 05:42:46;;;;;;;1.40;0.50;;;;;;;9.64;94.06;94477.53;5037425;28;20235;-79
2023/11/05 05:45:12;;;;;;;0.73;0.47;;;;;;;9.62;94.38;94482.19;5037974;28;20686;-79
2023/11/05 05:47:39;;;;;;;1.13;0.43;;;;;;;9.58;94.47;94488.84;5037904;28;20209;-79
2023/11/05 05:50:08;;;;;;;1.57;0.50;;;;;;;9.48;95.56;94498.91;5038335;28;20217;-79
2023/11/05 05:52:34;;;;;;;2.37;0.47;;;;;;;9.47;95.51;94498.06;5037204;28;20235;-79
2023/11/05 05:55:02;;;;;;;3.83;0.70;;;;;;;9.44;95.40;94495.00;5038192;28;20266;-79
2023/11/05 05:57:28;;;;;;;1.03;0.40;;;;;;;9.35;96.32;94517.16;5038206;28;20235;-79
2023/11/05 05:59:55;;;;;;;0.80;0.50;;;;;;;9.33;96.38;94513.91;5037673;28;20209;-79
2023/11/05 06:02:21;;;;;;;0.67;0.60;;;;;;;9.32;96.79;94520.19;5037936;28;20236;-79
2023/11/05 06:04:48;;;;;;;0.43;0.40;;;;;;;9.29;97.47;94515.28;5038032;28;20216;-79
2023/11/05 06:07:16;;;;;;;1.07;0.50;;;;;;;9.22;98.30;94503.84;5037863;28;20219;-79
2023/11/05 06:09:43;;;;;;;1.23;0.60;;;;;;;9.23;98.42;94516.06;5037921;28;20323;-79
2023/11/05 06:12:09;;;;;;;1.00;0.57;;;;;;;9.24;98.40;94512.41;5037943;28;20238;-79
2023/11/05 06:14:36;;;;;;;1.70;0.40;;;;;;;9.17;98.77;94516.78;5038070;28;20223;-79
2023/11/05 06:17:03;;;;;;;0.80;0.40;;;;;;;9.13;99.87;94515.50;5038441;28;20242;-80
2023/11/05 06:19:29;;;;;;;1.37;0.70;;;;;;;9.12;100.00;94525.22;5038408;28;20212;-80
2023/11/05 06:21:56;;;;;;;1.63;0.50;;;;;;;9.20;99.94;94511.13;5038609;28;20244;-79
2023/11/05 06:24:23;;;;;;;0.70;0.40;;;;;;;9.15;99.95;94519.59;5038818;28;20209;-79
2023/11/05 06:26:50;;;;;;;1.27;0.57;;;;;;;9.16;100.00;94521.22;5039336;28;20225;-79
2023/11/05 06:29:17;;;;;;;0.40;0.40;;;;;;;9.07;100.00;94519.69;5036557;28;20676;-79
2023/11/05 06:31:43;;;;;;;0.43;0.40;;;;;;;9.12;100.00;94532.31;5035500;28;20235;-79
2023/11/05 06:34:09;;;;;;;2.63;0.60;;;;;;;9.14;100.00;94535.59;5034206;28;20219;-79
2023/11/05 06:36:55;;;;;;;1.73;0.60;;;;;;;9.15;100.00;94534.56;5034813;28;20234;-79
2023/11/05 06:39:21;;;;;;;0.43;0.43;;;;;;;9.15;100.00;94534.56;5035835;28;20217;-79
2023/11/05 06:41:49;;;;;;;0.30;0.30;;;;;;;9.22;100.00;94540.75;5034930;28;20260;-79
2023/11/05 06:44:16;;;;;;;0.90;0.50;;;;;;;9.29;100.00;94533.72;5035340;28;20211;-79
2023/11/05 06:46:42;;;;;;;1.83;0.60;;;;;;;9.34;100.00;94528.72;5034650;28;20213;-79
2023/11/05 06:49:09;;;;;;;1.50;0.60;;;;;;;9.43;100.00;94532.88;5039441;28;20211;-79
2023/11/05 06:51:35;;;;;;;1.17;0.60;;;;;;;9.41;100.00;94554.16;5040724;28;20634;-79
2023/11/05 06:54:02;;;;;;;1.37;0.47;;;;;;;9.50;100.00;94550.41;5039003;28;20214;-79
2023/11/05 06:56:28;;;;;;;0.50;0.40;;;;;;;9.60;100.00;94564.09;5039616;28;20289;-79
2023/11/05 06:58:56;;;;;;;1.80;0.43;;;;;;;9.65;100.00;94552.97;5040211;28;20219;-79
2023/11/05 07:01:24;;;;;;;1.40;0.60;;;;;;;9.66;100.00;94567.81;5041253;28;20336;-79
2023/11/05 07:03:51;;;;;;;1.53;0.40;;;;;;;9.69;100.00;94567.44;5040526;28;20617;-79
2023/11/05 07:06:18;;;;;;;1.07;0.37;;;;;;;9.77;100.00;94569.94;5040856;28;20567;-79
2023/11/05 07:08:44;;;;;;;0.93;0.40;;;;;;;9.77;100.00;94568.13;5040836;28;20209;-80
2023/11/05 07:11:11;;;;;;;1.63;0.43;;;;;;;9.79;100.00;94565.31;5041368;28;20232;-80
2023/11/05 07:13:37;;;;;;;1.50;0.47;;;;;;;9.80;100.00;94574.84;5041011;28;20216;-79
2023/11/05 07:16:06;;;;;;;0.50;0.37;;;;;;;9.81;100.00;94573.84;5041346;28;20223;-79
2023/11/05 07:18:34;;;;;;;0.63;0.57;;;;;;;9.93;100.00;94573.19;5040857;28;20259;-79
2023/11/05 07:21:00;;;;;;;0.87;0.40;;;;;;;9.98;100.00;94569.97;5041564;28;20251;-79
2023/11/05 07:23:27;;;;;;;0.70;0.43;;;;;;;10.10;100.00;94568.50;5041532;28;20209;-79
2023/11/05 07:25:54;;;;;;;0.33;0.33;;;;;;;10.24;100.00;94576.34;5040388;28;20208;-80
2023/11/05 07:28:20;;;;;;;1.17;0.77;;;;;;;10.34;100.00;94586.56;5041494;28;20302;-79
2023/11/05 07:30:47;;;;;;;1.17;0.60;;;;;;;10.37;99.87;94578.25;5038767;28;20320;-78
2023/11/05 07:33:15;;;;;;;1.27;0.40;;;;;;;10.40;99.30;94569.97;5040334;28;20693;-80
2023/11/05 07:35:42;;;;;;;1.80;0.40;;;;;;;10.40;99.72;94569.97;5041526;28;20674;-81
2023/11/05 07:38:09;;;;;;;0.57;0.30;;;;;;;10.43;100.00;94569.56;5041820;28;20706;-79
2023/11/05 07:40:35;;;;;;;1.23;0.60;;;;;;;10.46;100.00;94587.69;5038205;28;20244;-78
2023/11/05 07:43:02;;;;;;;0.73;0.50;;;;;;;10.43;100.00;94575.69;5039767;28;20208;-81
2023/11/05 07:45:28;;;;;;;0.40;0.40;;;;;;;10.42;100.00;94581.97;5041634;28;20211;-81
2023/11/05 07:47:55;;;;;;;0.30;0.30;;;;;;;10.51;100.00;94587.94;5041587;28;20283;-81
2023/11/05 07:50:25;;;;;;;0.40;0.27;;;;;;;10.62;100.00;94585.56;5039332;28;20210;-81
2023/11/05 07:52:51;;;;;;;0.20;0.20;;;;;;;10.67;100.00;94590.28;5041326;28;20726;-81
2023/11/05 07:55:18;;;;;;;1.80;0.30;;;;;;;10.93;98.73;94595.72;5042093;28;20212;-80
2023/11/05 07:57:45;;;;;;;2.10;0.47;;;;;;;10.91;99.12;94603.03;5041458;28;20915;-80
2023/11/05 08:00:15;;;;;;;0.20;0.20;;;;;;;11.02;98.79;94597.22;5041901;28;20621;-81
2023/11/05 08:02:41;;;;;;;0.50;0.40;;;;;;;11.12;97.50;94611.72;5041150;28;20230;-81
2023/11/05 08:05:08;;;;;;;1.07;0.47;;;;;;;11.16;97.37;94609.50;5041250;28;20227;-80
2023/11/05 08:07:36;;;;;;;0.30;0.30;;;;;;;11.22;94.29;94606.06;5041282;28;20235;-80
2023/11/05 08:10:06;;;;;;;0.20;0.20;;;;;;;11.22;95.17;94622.75;5040941;28;20208;-85
2023/11/05 08:12:32;;;;;;;0.37;0.30;;;;;;;11.26;94.24;94633.75;5038696;28;20645;-83
2023/11/05 08:14:59;;;;;;;0.90;0.30;;;;;;;11.30;94.48;94634.97;5038215;28;20715;-80
2023/11/05 08:17:25;;;;;;;0.33;0.30;;;;;;;11.46;92.68;94642.59;5037615;28;20574;-79
2023/11/05 08:19:52;;;;;;;0.20;0.20;;;;;;;11.73;91.33;94639.13;5040364;28;20212;-82
2023/11/05 08:22:19;;;;;;;0.40;0.27;;;;;;;11.99;87.57;94633.91;5039396;28;20257;-82
2023/11/05 08:24:49;;;;;;;0.27;0.27;;;;;;;12.09;87.60;94637.81;5035411;28;20228;-81
2023/11/05 08:27:16;;;;;;;1.03;0.40;;;;;;;12.21;88.85;94673.28;5039939;28;20205;-80
2023/11/05 08:29:43;;;;;;;0.33;0.30;;;;;;;12.21;87.89;94669.81;5040582;28;20209;-81
2023/11/05 08:32:10;;;;;;;0.30;0.30;;;;;;;12.16;89.50;94672.25;5037954;28;20225;-82
2023/11/05 08:34:36;;;;;;;0.37;0.30;;;;;;;12.06;87.22;94682.38;5036121;28;20674;-81
2023/11/05 08:37:03;;;;;;;0.30;0.30;;;;;;;11.97;89.09;94688.84;5038403;28;20231;-82
2023/11/05 08:39:30;;;;;;;0.30;0.30;;;;;;;12.01;89.63;94684.81;5039862;28;20215;-82
2023/11/05 08:41:58;;;;;;;0.23;0.23;;;;;;;11.97;92.02;94704.72;5042501;28;20730;-81
2023/11/05 08:44:25;;;;;;;0.33;0.30;;;;;;;11.95;92.73;94706.75;5039629;28;20235;-80
2023/11/05 08:46:51;;;;;;;0.80;0.23;;;;;;;11.92;92.18;94707.16;5038003;28;20301;-80
2023/11/05 08:49:18;;;;;;;0.50;0.23;;;;;;;11.92;92.53;94718.56;5038880;28;20213;-81
2023/11/05 08:51:45;;;;;;;0.20;0.20;;;;;;;11.96;93.43;94729.56;5037248;28;20715;-81
2023/11/05 08:54:12;;;;;;;0.40;0.20;;;;;;;12.04;93.40;94729.41;5036951;28;20212;-81
2023/11/05 08:56:39;;;;;;;0.23;0.20;;;;;;;12.17;91.84;94732.13;5037493;28;20243;-81
2023/11/05 08:59:08;;;;;;;0.57;0.33;;;;;;;12.35;90.96;94725.25;5038496;28;20230;-82
2023/11/05 09:01:34;;;;;;;0.20;0.20;;;;;;;12.45;89.86;94724.84;5036041;28;20289;-82
2023/11/05 09:04:01;;;;;;;0.43;0.30;;;;;;;12.46;91.56;94747.69;5034755;28;20222;-82
2023/11/05 09:06:30;;;;;;;0.30;0.30;;;;;;;12.50;92.40;94746.25;5036271;28;20333;-82
2023/11/05 09:08:57;;;;;;;0.40;0.40;;;;;;;12.44;91.18;94760.31;5036436;28;20211;-82
2023/11/05 09:11:24;;;;;;;0.27;0.27;;;;;;;12.45;91.29;94761.94;5036018;28;20711;-82
2023/11/05 09:13:50;;;;;;;0.87;0.43;;;;;;;12.45;90.45;94768.06;5035242;28;20216;-82
2023/11/05 09:16:18;;;;;;;0.63;0.33;;;;;;;12.56;89.63;94774.59;5034614;28;20554;-82
2023/11/05 09:18:45;;;;;;;0.30;0.30;;;;;;;12.71;90.66;94784.03;5034825;28;20729;-82
2023/11/05 09:21:11;;;;;;;0.70;0.30;;;;;;;12.76;88.51;94786.06;5039852;28;20224;-83
2023/11/05 09:23:39;;;;;;;0.47;0.30;;;;;;;12.90;89.44;94799.16;5038454;28;20219;-82
2023/11/05 09:26:06;;;;;;;0.30;0.30;;;;;;;13.14;87.49;94793.31;5038980;28;20213;-83
2023/11/05 09:28:32;;;;;;;0.83;0.33;;;;;;;13.21;84.39;94785.38;5035972;28;20216;-81
2023/11/05 09:30:59;;;;;;;0.40;0.30;;;;;;;13.26;86.62;94790.91;5035768;28;20229;-80
2023/11/05 09:33:27;;;;;;;0.53;0.30;;;;;;;13.27;85.40;94800.47;5037036;28;20624;-81
2023/11/05 09:35:53;;;;;;;0.30;0.30;;;;;;;13.34;86.66;94811.91;5037571;28;20215;-81
2023/11/05 09:38:20;;;;;;;0.43;0.33;;;;;;;13.39;84.91;94814.78;5037357;28;20229;-81
2023/11/05 09:40:47;;;;;;;2.80;0.40;;;;;;;13.56;82.77;94808.06;5035608;28;20217;-81
2023/11/05 09:43:14;;;;;;;1.63;0.67;;;;;;;13.73;83.40;94818.03;5036995;28;20210;-82
2023/11/05 09:45:43;;;;;;;0.30;0.30;;;;;;;13.85;83.25;94836.78;5036212;28;20208;-82
2023/11/05 09:48:11;;;;;;;0.50;0.30;;;;;;;13.96;82.77;94844.16;5036288;28;20216;-83
2023/11/05 09:50:41;;;;;;;1.77;0.80;;;;;;;13.97;82.39;94845.78;5036919;28;20305;-83
2023/11/05 09:53:10;;;;;;;0.57;0.40;;;;;;;13.96;81.05;94844.16;5037337;28;20210;-83
2023/11/05 09:55:39;;;;;;;0.30;0.30;;;;;;;13.84;83.19;94861.72;5037194;28;20209;-82
2023/11/05 09:58:05;;;;;;;0.37;0.30;;;;;;;13.77;82.58;94868.88;5035972;28;20249;-82
2023/11/05 10:00:33;;;;;;;0.73;0.40;;;;;;;13.64;84.90;94882.13;5036109;28;20221;-83
2023/11/05 10:03:01;;;;;;;0.47;0.40;;;;;;;13.46;82.96;94879.25;5035585;28;20206;-83
2023/11/05 10:05:29;;;;;;;0.80;0.30;;;;;;;13.20;82.08;94887.16;5038171;28;20210;-83
2023/11/05 10:07:57;;;;;;;0.30;0.30;;;;;;;13.22;82.96;94893.06;5037547;28;20220;-83
2023/11/05 10:10:23;;;;;;;0.20;0.20;;;;;;;13.09;82.61;94903.63;5036340;28;20222;-83
2023/11/05 10:12:50;;;;;;;0.57;0.20;;;;;;;12.99;86.06;94919.09;5035896;28;20229;-83
2023/11/05 10:15:17;;;;;;;1.47;0.30;;;;;;;12.88;89.32;94932.88;5037027;28;20312;-83
2023/11/05 10:17:45;;;;;;;1.63;0.27;;;;;;;12.70;94.19;94951.13;5036510;28;20260;-83
2023/11/05 10:20:13;;;;;;;0.43;0.40;;;;;;;12.73;97.09;94974.59;5035886;28;20209;-83
2023/11/05 10:22:43;;;;;;;0.63;0.40;;;;;;;12.63;98.21;94971.47;5037137;28;20240;-82
2023/11/05 10:25:23;;;;;;;0.93;0.50;;;;;;;12.55;97.05;94984.88;5040984;28;20216;-83
2023/11/05 10:27:49;;;;;;;0.27;0.20;;;;;;;12.48;98.38;94984.00;5040738;28;20614;-83
2023/11/05 10:30:18;;;;;;;0.30;0.30;;;;;;;12.38;98.50;94994.13;5037914;28;20211;-83
2023/11/05 10:32:46;;;;;;;0.20;0.20;;;;;;;12.39;98.86;95001.03;5036942;28;20683;-83
2023/11/05 10:35:14;;;;;;;1.10;0.53;;;;;;;12.12;100.00;95020.38;5036675;28;20209;-83
2023/11/05 10:37:41;;;;;;;0.53;0.37;;;;;;;11.87;100.00;95024.44;5036373;28;20239;-83
2023/11/05 10:40:09;;;;;;;1.67;0.40;;;;;;;11.66;100.00;95029.69;5036907;28;20208;-82
2023/11/05 10:42:40;;;;;;;0.73;0.30;;;;;;;11.48;100.00;95037.19;5036989;28;20319;-83
2023/11/05 10:45:09;;;;;;;2.17;0.40;;;;;;;11.40;100.00;95032.03;5037486;28;20211;-83
2023/11/05 10:47:37;;;;;;;0.40;0.40;;;;;;;11.35;100.00;95037.03;5036459;28;20212;-83
2023/11/05 10:50:06;;;;;;;0.53;0.40;;;;;;;11.48;100.00;95039.84;5036952;28;20208;-83
2023/11/05 10:52:34;;;;;;;0.80;0.30;;;;;;;11.61;100.00;95053.25;5036199;28;20244;-83
2023/11/05 10:55:05;;;;;;;1.73;0.50;;;;;;;11.75;100.00;95045.25;5037120;28;20215;-83
2023/11/05 10:57:44;;;;;;;0.30;0.30;;;;;;;11.67;100.00;95055.16;5037757;28;20307;-83
2023/11/05 11:00:51;;;;;;;0.87;0.30;;;;;;;11.58;100.00;95058.88;5037846;28;20676;-82
2023/11/05 11:03:19;;;;;;;2.27;0.60;;;;;;;11.54;100.00;95071.66;5038341;28;20240;-83
2023/11/05 11:06:04;;;;;;;0.30;0.30;;;;;;;11.53;100.00;95077.94;5040032;28;20208;-83
2023/11/05 11:08:34;;;;;;;0.90;0.30;;;;;;;11.45;100.00;95070.13;5041246;28;20269;-83
2023/11/05 11:11:14;;;;;;;0.30;0.30;;;;;;;11.36;100.00;95076.50;5040243;28;20695;-80
2023/11/05 11:13:52;;;;;;;1.80;0.50;;;;;;;11.28;100.00;95078.44;5041912;28;20204;-82
2023/11/05 11:16:23;;;;;;;1.37;0.30;;;;;;;11.26;100.00;95089.19;5040767;28;20315;-82
2023/11/05 11:18:51;;;;;;;0.40;0.40;;;;;;;11.23;100.00;95094.84;5039909;28;20248;-82
2023/11/05 11:21:19;;;;;;;0.30;0.30;;;;;;;11.30;100.00;95097.56;5038950;28;20233;-82
2023/11/05 11:23:46;;;;;;;0.70;0.30;;;;;;;11.30;100.00;95110.78;5038974;28;20243;-82
2023/11/05 11:26:20;;;;;;;0.50;0.40;;;;;;;11.30;100.00;95113.44;5038632;28;20215;-82
2023/11/05 11:28:57;;;;;;;1.40;0.60;;;;;;;11.33;100.00;95113.06;5039780;28;20256;-82
2023/11/05 11:31:24;;;;;;;0.40;0.40;;;;;;;11.30;100.00;95118.72;5038773;28;20227;-82
2023/11/05 11:33:52;;;;;;;0.67;0.40;;;;;;;11.31;100.00;95123.03;5036074;28;20223;-81
2023/11/05 11:36:19;;;;;;;1.47;0.43;;;;;;;11.23;100.00;95126.56;5038984;28;20215;-82